Jacksonville International Airport
KJAX : now visible

Airfield :











YOU CAN JOIN US ON...

 
LOGIN :

Register | Disclaimer

   EN    FR    IT 

 









Legend :    VFR   Marginal VFR   IFR   Intensive IFR   Very Intensive IFR
Visi :
Ceiling :
>= 8 km
>= 3000ft
5 to 8 km
1000 to 3000 ft
1500m to 5 km
500 to 1000 ft
800 to 1500m
200 to 500 ft
< 800m
< 200 ft
Symbols :   Thunderstorms  Fog  Heavy snow  Heavy precipitations  Wind > 20 kt






- Airport Elevation : 30 ft
- IATA code : JAX


KJAX - Jacksonville International

CURRENT METAR :
  • 190256Z 34005KT 10SM BKN016 BKN050 23/21 A2995 RMK AO2 SLP143 T02280211 51015

EXPIRED METARs :
  • 190240Z 35005KT 10SM BKN016 BKN028 23/21 A2995 RMK AO2 T02280211
  • 190156Z 34005KT 10SM FEW020 OVC044 23/22 A2994 RMK AO2 SLP137 T02280217
  • 190056Z 35006KT 10SM FEW017 BKN037 OVC048 23/22 A2993 RMK AO2 SLP135 T02280217

TAF KJAX
Valid from the 19 at 00:00 until the 20 at 00:00 UTC


182320Z 1900/1924 33005KT P6SM -SHRA SCT025 OVC040
FM190100 35006KT P6SM VCSH OVC025
FM191000 01010KT P6SM VCSH OVC015
FM191500 04014G23KT P6SM -SHRA OVC015
KZJX FIR / North America



MET'MAP, your aeronautical weather chart ! - Copyright ORBIFLY December 2007 - Disclaimer

ORBIFLY MET'MAP TEAM :

Programming & Development : Alexandra Zaïnal
Concept & original design : Baudouin d'Aumeries
Assistance for programming : Marc-Olivier Méhu
Technical & hardware support : Manuel Goepfert

Contact : metmap@orbifly.com




SOURCES & CREDITS :

   NOAA       Earth
Advisory